createdAt,value
2022-11-07T00:00:33.970Z,90.90
2022-11-07T00:01:33.997Z,198.30
2022-11-07T00:02:33.987Z,115.40
2022-11-07T00:03:33.926Z,124.80
2022-11-07T00:04:33.918Z,121.80
2022-11-07T00:05:33.919Z,104.80
2022-11-07T00:06:33.935Z,121.80
2022-11-07T00:07:33.888Z,121.10
2022-11-07T00:08:33.887Z,102.60
2022-11-07T00:09:33.873Z,94.50
2022-11-07T00:10:33.898Z,86.80
2022-11-07T00:11:33.846Z,98.30
2022-11-07T00:12:33.839Z,131.80
2022-11-07T00:13:33.813Z,113.50
2022-11-07T00:14:33.805Z,104.50
2022-11-07T00:15:33.829Z,136.00
2022-11-07T00:16:33.797Z,127.30
2022-11-07T00:17:33.764Z,114.20
2022-11-07T00:18:33.767Z,128.30
2022-11-07T00:19:33.769Z,180.20
2022-11-07T00:20:33.777Z,130.70
2022-11-07T00:21:33.757Z,135.80
2022-11-07T00:22:33.722Z,131.80
2022-11-07T00:23:33.711Z,135.50
2022-11-07T00:24:33.700Z,125.30
2022-11-07T00:25:33.704Z,118.40
2022-11-07T00:26:33.673Z,179.70
2022-11-07T00:27:33.691Z,150.30
2022-11-07T00:28:33.652Z,143.50
2022-11-07T00:29:33.633Z,123.90
2022-11-07T00:30:33.662Z,116.40
2022-11-07T00:31:33.610Z,196.40
2022-11-07T00:32:33.610Z,128.90
2022-11-07T00:33:33.591Z,152.80
2022-11-07T00:34:33.575Z,168.60
2022-11-07T00:35:33.556Z,127.50
2022-11-07T00:36:33.579Z,148.00
2022-11-07T00:37:33.538Z,145.30
2022-11-07T00:38:33.537Z,149.50
2022-11-07T00:39:33.529Z,159.80
2022-11-07T00:40:33.513Z,116.90
2022-11-07T00:41:33.532Z,158.50
2022-11-07T00:42:33.485Z,169.10
2022-11-07T00:43:33.469Z,147.20
2022-11-07T00:44:33.474Z,164.10
2022-11-07T00:45:33.444Z,158.60
2022-11-07T00:46:33.473Z,139.60
2022-11-07T00:47:33.439Z,114.70
2022-11-07T00:48:33.415Z,144.40
2022-11-07T00:49:33.404Z,269.40
2022-11-07T00:50:33.380Z,205.70
2022-11-07T00:51:33.413Z,317.30
2022-11-07T00:52:33.378Z,134.10
2022-11-07T00:53:33.374Z,114.40
2022-11-07T00:54:33.359Z,165.00
2022-11-07T00:55:33.365Z,194.30
2022-11-07T00:56:33.354Z,211.80
2022-11-07T00:57:33.304Z,169.10
2022-11-07T00:58:33.315Z,122.70
2022-11-07T00:59:33.326Z,148.90
2022-11-07T01:00:33.288Z,315.80
2022-11-07T01:01:33.451Z,192.10
2022-11-07T01:02:33.393Z,388.60
2022-11-07T01:03:33.253Z,188.80
2022-11-07T01:04:33.243Z,111.30
2022-11-07T01:05:33.233Z,196.80
2022-11-07T01:06:33.247Z,429.80
2022-11-07T01:07:33.221Z,127.90
2022-11-07T01:08:33.228Z,234.20
2022-11-07T01:09:33.174Z,302.80
2022-11-07T01:10:33.168Z,140.90
2022-11-07T01:11:33.192Z,184.70
2022-11-07T01:12:33.136Z,232.90
2022-11-07T01:13:33.123Z,317.80
2022-11-07T01:14:33.108Z,142.80
2022-11-07T01:15:33.087Z,235.00
2022-11-07T01:16:33.139Z,189.70
2022-11-07T01:17:33.092Z,258.40
2022-11-07T01:18:33.075Z,370.80
2022-11-07T01:19:33.067Z,184.70
2022-11-07T01:20:33.059Z,370.10
2022-11-07T01:21:33.065Z,314.10
2022-11-07T01:22:33.038Z,143.30
2022-11-07T01:23:33.014Z,154.40
2022-11-07T01:24:33.013Z,335.80
2022-11-07T01:25:32.985Z,344.20
2022-11-07T01:26:33.005Z,199.70
2022-11-07T01:27:32.966Z,146.40
2022-11-07T01:28:32.960Z,319.20
2022-11-07T01:29:32.945Z,122.90
2022-11-07T01:30:32.960Z,144.30
2022-11-07T01:31:32.976Z,95.20
2022-11-07T01:32:32.917Z,261.90
2022-11-07T01:33:32.911Z,81.90
2022-11-07T01:34:32.897Z,220.10
2022-11-07T01:35:32.889Z,53.30
2022-11-07T01:36:32.916Z,74.30
2022-11-07T01:37:33.497Z,218.50
2022-11-07T01:38:32.868Z,160.90
2022-11-07T01:39:32.855Z,176.70
2022-11-07T01:40:32.844Z,97.30
2022-11-07T01:41:32.857Z,202.40
2022-11-07T01:42:32.826Z,69.70
2022-11-07T01:43:32.793Z,218.70
2022-11-07T01:44:32.801Z,65.00
2022-11-07T01:45:32.766Z,207.80
2022-11-07T01:46:32.826Z,217.80
2022-11-07T01:47:32.756Z,91.50
2022-11-07T01:48:32.733Z,160.40
2022-11-07T01:49:32.726Z,161.60
2022-11-07T01:50:32.703Z,97.20
2022-11-07T01:51:32.724Z,188.60
2022-11-07T01:52:32.674Z,58.80
2022-11-07T01:53:32.676Z,209.70
2022-11-07T01:54:32.669Z,90.90
2022-11-07T01:55:32.662Z,193.10
2022-11-07T01:56:32.684Z,134.80
2022-11-07T01:57:32.630Z,67.20
2022-11-07T01:58:32.632Z,113.50
2022-11-07T01:59:32.616Z,190.10
2022-11-07T02:00:32.628Z,170.00
2022-11-07T02:01:32.778Z,67.30
2022-11-07T02:02:32.738Z,178.70
2022-11-07T02:03:32.575Z,85.00
2022-11-07T02:04:32.561Z,146.20
2022-11-07T02:05:32.570Z,148.10
2022-11-07T02:06:32.569Z,61.10
2022-11-07T02:07:32.537Z,181.50
2022-11-07T02:08:32.514Z,90.90
2022-11-07T02:09:32.494Z,85.30
2022-11-07T02:10:32.488Z,160.70
2022-11-07T02:11:32.525Z,52.40
2022-11-07T02:12:32.469Z,170.90
2022-11-07T02:13:32.454Z,53.50
2022-11-07T02:14:32.453Z,170.20
2022-11-07T02:15:32.438Z,92.20
2022-11-07T02:16:32.449Z,160.40
2022-11-07T02:17:32.415Z,64.50
2022-11-07T02:18:32.401Z,161.00
2022-11-07T02:19:32.392Z,108.20
2022-11-07T02:20:32.369Z,149.00
2022-11-07T02:21:32.408Z,78.50
2022-11-07T02:22:32.356Z,139.10
2022-11-07T02:23:32.356Z,138.10
2022-11-07T02:24:32.334Z,65.90
2022-11-07T02:25:32.336Z,90.80
2022-11-07T02:26:32.323Z,141.60
2022-11-07T02:27:32.321Z,93.50
2022-11-07T02:28:32.269Z,140.80
2022-11-07T02:29:32.262Z,130.40
2022-11-07T02:30:32.247Z,86.40
2022-11-07T02:31:32.291Z,132.70
2022-11-07T02:32:32.271Z,139.60
2022-11-07T02:33:32.231Z,65.90
2022-11-07T02:34:32.210Z,77.30
2022-11-07T02:35:32.199Z,144.00
2022-11-07T02:36:32.230Z,141.00
2022-11-07T02:37:32.190Z,105.30
2022-11-07T02:38:32.169Z,68.20
2022-11-07T02:39:32.157Z,133.90
2022-11-07T02:40:32.165Z,70.60
2022-11-07T02:41:32.194Z,129.60
2022-11-07T02:42:32.132Z,69.90
2022-11-07T02:43:32.114Z,125.00
2022-11-07T02:44:32.119Z,82.70
2022-11-07T02:45:32.096Z,124.30
2022-11-07T02:46:32.075Z,107.50
2022-11-07T02:47:32.103Z,132.30
2022-11-07T02:48:32.055Z,88.70
2022-11-07T02:49:32.058Z,132.20
2022-11-07T02:50:32.032Z,118.10
2022-11-07T02:51:32.034Z,119.90
2022-11-07T02:52:32.029Z,92.60
2022-11-07T02:53:31.996Z,139.70
2022-11-07T02:54:31.983Z,90.20
2022-11-07T02:55:31.971Z,75.40
2022-11-07T02:56:31.972Z,124.50
2022-11-07T02:57:31.996Z,86.30
2022-11-07T02:58:31.930Z,115.90
2022-11-07T02:59:31.946Z,96.10
2022-11-07T03:00:31.921Z,130.40
2022-11-07T03:01:32.049Z,139.40
2022-11-07T03:02:32.107Z,124.10
2022-11-07T03:03:31.892Z,98.70
2022-11-07T03:04:31.871Z,177.60
2022-11-07T03:05:31.863Z,85.90
2022-11-07T03:06:31.838Z,151.00
2022-11-07T03:07:31.880Z,75.30
2022-11-07T03:08:31.805Z,173.10
2022-11-07T03:09:31.814Z,112.90
2022-11-07T03:10:31.800Z,175.20
2022-11-07T03:11:31.800Z,151.40
2022-11-07T03:12:31.815Z,96.00
2022-11-07T03:13:31.773Z,133.40
2022-11-07T03:14:31.838Z,125.60
2022-11-07T03:15:31.757Z,97.00
2022-11-07T03:16:31.760Z,169.20
2022-11-07T03:17:31.762Z,66.90
2022-11-07T03:18:31.703Z,106.20
2022-11-07T03:19:31.724Z,157.90
2022-11-07T03:20:31.695Z,118.90
2022-11-07T03:21:31.703Z,118.30
2022-11-07T03:22:31.694Z,66.50
2022-11-07T03:23:31.671Z,145.90
2022-11-07T03:24:31.651Z,40.60
2022-11-07T03:25:31.633Z,138.30
2022-11-07T03:26:31.640Z,57.10
2022-11-07T03:27:31.658Z,86.00
2022-11-07T03:28:31.621Z,129.70
2022-11-07T03:29:31.598Z,112.10
2022-11-07T03:30:31.578Z,55.60
2022-11-07T03:31:31.569Z,132.50
2022-11-07T03:32:31.590Z,112.70
2022-11-07T03:33:31.573Z,100.70
2022-11-07T03:34:31.535Z,113.30
2022-11-07T03:35:31.535Z,123.80
2022-11-07T03:36:31.519Z,77.20
2022-11-07T03:37:31.530Z,104.00
2022-11-07T03:38:31.493Z,104.30
2022-11-07T03:39:31.487Z,159.30
2022-11-07T03:40:31.480Z,135.00
2022-11-07T03:41:31.460Z,77.30
2022-11-07T03:42:31.463Z,67.50
2022-11-07T03:43:31.432Z,118.80
2022-11-07T03:44:31.404Z,161.40
2022-11-07T03:45:31.392Z,140.50
2022-11-07T03:46:31.399Z,62.90
2022-11-07T03:47:31.417Z,78.90
2022-11-07T03:48:31.374Z,102.30
2022-11-07T03:49:31.381Z,145.10
2022-11-07T03:50:31.344Z,76.20
2022-11-07T03:51:31.360Z,65.40
2022-11-07T03:52:31.373Z,164.50
2022-11-07T03:53:31.320Z,79.40
2022-11-07T03:54:31.330Z,128.20
2022-11-07T03:55:31.308Z,68.20
2022-11-07T03:56:31.285Z,103.10
2022-11-07T03:57:31.321Z,170.90
2022-11-07T03:58:31.272Z,62.80
2022-11-07T03:59:31.252Z,63.10
2022-11-07T04:00:31.259Z,169.40
2022-11-07T04:01:31.387Z,64.90
2022-11-07T04:02:31.317Z,87.50
2022-11-07T04:03:31.213Z,170.40
2022-11-07T04:04:31.190Z,91.20
2022-11-07T04:05:31.192Z,79.00
2022-11-07T04:06:31.177Z,100.90
2022-11-07T04:07:31.199Z,102.10
2022-11-07T04:08:31.154Z,84.10
2022-11-07T04:09:31.133Z,133.50
2022-11-07T04:10:31.130Z,134.30
2022-11-07T04:11:31.120Z,131.70
2022-11-07T04:12:31.125Z,84.60
2022-11-07T04:13:31.094Z,57.80
2022-11-07T04:14:31.065Z,102.70
2022-11-07T04:15:31.083Z,159.10
2022-11-07T04:16:31.057Z,138.60
2022-11-07T04:17:31.084Z,249.90
2022-11-07T04:18:31.027Z,226.50
2022-11-07T04:19:31.033Z,261.40
2022-11-07T04:20:31.018Z,95.70
2022-11-07T04:21:30.984Z,210.00
2022-11-07T04:22:31.002Z,136.00
2022-11-07T04:23:30.960Z,95.80
2022-11-07T04:24:30.953Z,282.40
2022-11-07T04:25:30.963Z,170.10
2022-11-07T04:26:30.952Z,102.80
2022-11-07T04:27:30.955Z,129.50
2022-11-07T04:28:30.916Z,171.20
2022-11-07T04:29:30.919Z,161.60
2022-11-07T04:30:30.892Z,266.80
2022-11-07T04:31:30.898Z,96.90
2022-11-07T04:32:30.907Z,156.60
2022-11-07T04:33:30.880Z,176.00
2022-11-07T04:34:30.854Z,84.00
2022-11-07T04:35:30.857Z,81.30
2022-11-07T04:36:30.830Z,141.30
2022-11-07T04:37:30.858Z,227.20
2022-11-07T04:38:30.794Z,164.30
2022-11-07T04:39:30.798Z,58.40
2022-11-07T04:40:30.807Z,153.70
2022-11-07T04:41:30.771Z,109.70
2022-11-07T04:42:30.804Z,95.00
2022-11-07T04:43:30.758Z,94.80
2022-11-07T04:44:30.743Z,157.20
2022-11-07T04:45:30.731Z,136.40
2022-11-07T04:46:30.697Z,74.10
2022-11-07T04:47:30.736Z,132.10
2022-11-07T04:48:30.727Z,177.90
2022-11-07T04:49:30.693Z,69.40
2022-11-07T04:50:30.672Z,84.40
2022-11-07T04:51:30.647Z,98.50
2022-11-07T04:52:30.655Z,142.00
2022-11-07T04:53:30.680Z,197.80
2022-11-07T04:54:30.630Z,85.90
2022-11-07T04:55:30.637Z,156.80
2022-11-07T04:56:34.430Z,109.60
2022-11-07T04:57:30.601Z,165.00
2022-11-07T04:58:30.605Z,66.10
2022-11-07T04:59:30.558Z,109.80
2022-11-07T05:00:30.542Z,171.90
2022-11-07T05:01:30.576Z,105.00
2022-11-07T05:02:30.596Z,66.00
2022-11-07T05:03:30.557Z,162.80
2022-11-07T05:04:30.506Z,55.10
2022-11-07T05:05:30.519Z,161.60
2022-11-07T05:06:30.485Z,125.10
2022-11-07T05:07:30.474Z,58.90
2022-11-07T05:08:30.500Z,69.80
2022-11-07T05:09:30.452Z,137.50
2022-11-07T05:10:30.449Z,70.70
2022-11-07T05:11:30.437Z,57.00
2022-11-07T05:12:30.435Z,118.40
2022-11-07T05:13:30.456Z,88.20
2022-11-07T05:14:30.395Z,90.70
2022-11-07T05:15:30.393Z,95.20
2022-11-07T05:16:30.375Z,145.00
2022-11-07T05:17:30.383Z,94.60
2022-11-07T05:18:30.430Z,60.80
2022-11-07T05:19:30.332Z,124.70
2022-11-07T05:20:30.340Z,118.50
2022-11-07T05:21:30.318Z,113.00
2022-11-07T05:22:30.324Z,103.00
2022-11-07T05:23:30.339Z,59.60
2022-11-07T05:24:30.295Z,60.60
2022-11-07T05:25:30.282Z,85.70
2022-11-07T05:26:30.284Z,149.10
2022-11-07T05:27:30.252Z,81.50
2022-11-07T05:28:37.072Z,53.10
2022-11-07T05:29:31.269Z,123.10
2022-11-07T05:30:30.207Z,124.20
2022-11-07T05:31:30.206Z,110.60
2022-11-07T05:32:30.204Z,152.10
2022-11-07T05:33:30.235Z,95.70
2022-11-07T05:34:30.228Z,53.90
2022-11-07T05:35:30.169Z,83.70
2022-11-07T05:36:30.136Z,141.40
2022-11-07T05:37:30.123Z,57.50
2022-11-07T05:38:30.129Z,111.00
2022-11-07T05:39:30.165Z,126.80
2022-11-07T05:40:30.116Z,73.10
2022-11-07T05:41:30.070Z,124.10
2022-11-07T05:42:30.082Z,122.30
2022-11-07T05:43:30.085Z,72.20
2022-11-07T05:44:30.111Z,95.00
2022-11-07T05:45:30.062Z,145.20
2022-11-07T05:46:30.034Z,95.00
2022-11-07T05:47:30.045Z,143.60
2022-11-07T05:48:30.024Z,90.30
2022-11-07T05:49:30.045Z,67.60
2022-11-07T05:50:29.991Z,102.60
2022-11-07T05:51:29.993Z,150.60
2022-11-07T05:52:29.964Z,40.30
2022-11-07T05:53:29.994Z,57.00
2022-11-07T05:54:29.977Z,127.70
2022-11-07T05:55:29.946Z,149.90
2022-11-07T05:56:29.937Z,125.10
2022-11-07T05:57:29.923Z,87.60
2022-11-07T05:58:29.911Z,92.50
2022-11-07T05:59:29.931Z,152.80
2022-11-07T06:00:29.870Z,35.60
2022-11-07T06:01:29.992Z,84.20
2022-11-07T06:02:29.966Z,139.70
2022-11-07T06:03:29.861Z,118.70
2022-11-07T06:04:29.877Z,41.80
2022-11-07T06:05:29.828Z,62.80
2022-11-07T06:06:29.827Z,156.30
2022-11-07T06:07:29.798Z,64.30
2022-11-07T06:08:29.806Z,139.80
2022-11-07T06:09:29.829Z,166.20
2022-11-07T06:10:29.787Z,51.60
2022-11-07T06:11:29.758Z,39.00
2022-11-07T06:12:29.753Z,90.40
2022-11-07T06:13:29.737Z,174.90
2022-11-07T06:14:29.744Z,39.50
2022-11-07T06:15:29.689Z,157.80
2022-11-07T06:16:29.692Z,66.40
2022-11-07T06:17:29.700Z,60.70
2022-11-07T06:18:29.709Z,160.60
2022-11-07T06:19:29.692Z,38.10
2022-11-07T06:20:29.658Z,149.50
2022-11-07T06:21:29.666Z,70.80
2022-11-07T06:22:29.639Z,58.10
2022-11-07T06:23:29.635Z,96.10
2022-11-07T06:24:29.613Z,152.60
2022-11-07T06:25:29.627Z,49.90
2022-11-07T06:26:29.589Z,122.30
2022-11-07T06:27:29.569Z,134.50
2022-11-07T06:28:29.579Z,119.10
2022-11-07T06:29:29.552Z,141.00
2022-11-07T06:30:29.593Z,87.30
2022-11-07T06:31:29.537Z,100.70
2022-11-07T06:32:29.514Z,155.70
2022-11-07T06:33:29.511Z,125.10
2022-11-07T06:34:29.503Z,113.50
2022-11-07T06:35:29.515Z,144.80
2022-11-07T06:36:29.469Z,78.70
2022-11-07T06:37:29.463Z,127.50
2022-11-07T06:38:29.459Z,68.60
2022-11-07T06:39:29.428Z,92.80
2022-11-07T06:40:29.468Z,148.00
2022-11-07T06:41:29.425Z,77.80
2022-11-07T06:42:29.419Z,55.80
2022-11-07T06:43:33.616Z,90.00
2022-11-07T06:44:29.374Z,125.50
2022-11-07T06:45:29.391Z,66.90
2022-11-07T06:46:29.363Z,61.70
2022-11-07T06:47:29.357Z,65.50
2022-11-07T06:48:29.355Z,133.40
2022-11-07T06:49:29.333Z,118.20
2022-11-07T06:50:29.335Z,135.80
2022-11-07T06:51:29.306Z,58.50
2022-11-07T06:52:29.292Z,151.40
2022-11-07T06:53:29.281Z,44.60
2022-11-07T06:54:29.281Z,166.20
2022-11-07T06:55:29.303Z,77.70
2022-11-07T06:56:29.259Z,185.60
2022-11-07T06:57:29.233Z,139.60
2022-11-07T06:58:29.220Z,219.70
2022-11-07T06:59:29.213Z,197.10
2022-11-07T07:00:29.321Z,266.80
2022-11-07T07:01:29.386Z,261.30
2022-11-07T07:02:56.777Z,89.10
2022-11-07T07:03:30.162Z,64.10
2022-11-07T07:04:29.210Z,286.80
2022-11-07T07:05:29.200Z,65.90
2022-11-07T07:06:29.118Z,297.50
2022-11-07T07:07:29.103Z,75.50
2022-11-07T07:08:29.111Z,290.30
2022-11-07T07:09:29.103Z,256.40
2022-11-07T07:10:29.121Z,250.00
2022-11-07T07:11:29.071Z,253.30
2022-11-07T07:12:29.070Z,175.70
2022-11-07T07:13:29.056Z,238.20
2022-11-07T07:14:29.060Z,689.90
2022-11-07T07:15:29.153Z,524.40
2022-11-07T07:16:29.022Z,192.20
2022-11-07T07:17:29.005Z,539.50
2022-11-07T07:18:29.023Z,120.80
2022-11-07T07:19:28.991Z,163.40
2022-11-07T07:20:29.021Z,314.60
2022-11-07T07:21:28.969Z,204.90
2022-11-07T07:22:28.960Z,742.40
2022-11-07T07:23:28.950Z,457.20
2022-11-07T07:24:28.940Z,145.90
2022-11-07T07:25:28.982Z,163.00
2022-11-07T07:26:28.929Z,649.50
2022-11-07T07:27:28.898Z,250.90
2022-11-07T07:28:28.875Z,431.00
2022-11-07T07:29:28.860Z,188.70
2022-11-07T07:30:28.882Z,177.90
2022-11-07T07:31:28.831Z,601.20
2022-11-07T07:32:28.838Z,169.10
2022-11-07T07:33:28.829Z,341.90
2022-11-07T07:34:28.820Z,1999.90
2022-11-07T07:35:28.840Z,179.30
2022-11-07T07:36:28.797Z,1999.90
2022-11-07T07:37:28.781Z,178.00
2022-11-07T07:38:28.785Z,203.50
2022-11-07T07:39:28.766Z,234.00
2022-11-07T07:40:28.833Z,234.10
2022-11-07T07:41:28.724Z,249.60
2022-11-07T07:42:28.749Z,195.30
2022-11-07T07:43:28.713Z,146.60
2022-11-07T07:44:28.695Z,216.20
2022-11-07T07:45:29.398Z,140.80
2022-11-07T07:46:28.681Z,243.10
2022-11-07T07:47:28.676Z,135.70
2022-11-07T07:48:28.664Z,130.10
2022-11-07T07:49:28.689Z,294.10
2022-11-07T07:50:28.782Z,1999.90
2022-11-07T07:51:28.619Z,271.20
2022-11-07T07:52:28.624Z,192.70
2022-11-07T07:53:28.587Z,1999.90
2022-11-07T07:54:28.598Z,1999.90
2022-11-07T07:55:28.620Z,656.60
2022-11-07T07:56:28.587Z,1999.90
2022-11-07T07:57:28.559Z,519.80
2022-11-07T07:58:28.522Z,1999.90
2022-11-07T07:59:28.539Z,1037.80
2022-11-07T08:00:28.527Z,1999.90
2022-11-07T08:01:28.647Z,1999.90
2022-11-07T08:02:28.543Z,1999.90
2022-11-07T08:03:39.689Z,1999.90
2022-11-07T08:04:29.488Z,1999.90
2022-11-07T08:05:28.475Z,1999.90
2022-11-07T08:06:28.496Z,1999.90
2022-11-07T08:07:28.431Z,1999.90
2022-11-07T08:08:30.499Z,1999.90
2022-11-07T08:09:29.417Z,1999.90
2022-11-07T08:10:41.384Z,1999.90
2022-11-07T08:11:29.398Z,1999.90
2022-11-07T08:12:28.371Z,1999.90
2022-11-07T08:13:28.485Z,1999.90
2022-11-07T08:14:28.372Z,1999.90
2022-11-07T08:15:28.374Z,1999.90
2022-11-07T08:16:28.371Z,1999.90
2022-11-07T08:17:28.332Z,926.80
2022-11-07T08:18:28.320Z,475.90
2022-11-07T08:19:28.330Z,290.20
2022-11-07T08:20:28.351Z,49.40
2022-11-07T08:21:28.272Z,23.60
2022-11-07T08:22:28.266Z,18.80
2022-11-07T08:23:28.265Z,16.30
2022-11-07T08:24:28.251Z,14.10
2022-11-07T08:25:28.235Z,11.70
2022-11-07T08:26:28.258Z,11.20
2022-11-07T08:27:28.214Z,10.80
2022-11-07T08:28:28.210Z,10.50
2022-11-07T08:29:28.188Z,10.30
2022-11-07T08:30:28.186Z,12.40
2022-11-07T08:31:28.213Z,12.70
2022-11-07T08:32:28.169Z,13.80
2022-11-07T08:33:28.224Z,14.70
2022-11-07T08:34:28.155Z,15.60
2022-11-07T08:35:28.167Z,16.30
2022-11-07T08:36:29.025Z,14.20
2022-11-07T08:37:28.097Z,12.10
2022-11-07T08:38:28.115Z,11.50
2022-11-07T08:39:28.079Z,12.60
2022-11-07T08:40:28.094Z,11.10
2022-11-07T08:41:28.068Z,10.50
2022-11-07T08:42:28.068Z,10.30
2022-11-07T08:43:28.075Z,10.10
2022-11-07T08:44:28.025Z,10.00
2022-11-07T08:45:28.035Z,10.10
2022-11-07T08:46:28.011Z,10.20
2022-11-07T08:47:28.298Z,202.80
2022-11-07T08:48:27.971Z,11.60
2022-11-07T08:49:27.969Z,148.50
2022-11-07T08:50:27.981Z,12.40
2022-11-07T08:51:27.929Z,1467.00
2022-11-07T08:52:27.944Z,12.30
2022-11-07T08:53:27.923Z,11.80
2022-11-07T08:54:27.939Z,11.80
2022-11-07T08:55:27.931Z,12.70
2022-11-07T08:56:27.896Z,1999.90
2022-11-07T08:57:27.880Z,1054.70
2022-11-07T08:58:30.178Z,22.60
2022-11-07T08:59:27.834Z,12.80
2022-11-07T09:00:27.862Z,12.80
2022-11-07T09:01:27.933Z,13.00
2022-11-07T09:03:46.580Z,472.10
2022-11-07T09:04:28.842Z,157.60
2022-11-07T09:05:27.823Z,835.70
2022-11-07T09:06:27.782Z,13.60
2022-11-07T09:07:27.763Z,13.50
2022-11-07T09:08:27.781Z,17.60
2022-11-07T09:09:27.727Z,13.90
2022-11-07T09:10:27.768Z,35.30
2022-11-07T09:11:27.716Z,13.10
2022-11-07T09:12:27.704Z,11.00
2022-11-07T09:13:27.697Z,11.60
2022-11-07T09:14:27.711Z,59.40
2022-11-07T09:15:27.735Z,14.40
2022-11-07T09:16:27.680Z,14.40
2022-11-07T09:17:27.636Z,14.60
2022-11-07T09:18:27.654Z,36.10
2022-11-07T09:19:27.600Z,13.20
2022-11-07T09:20:27.636Z,21.90
2022-11-07T09:21:27.598Z,20.00
2022-11-07T09:22:27.595Z,51.60
2022-11-07T09:23:27.569Z,171.20
2022-11-07T09:24:27.557Z,13.70
2022-11-07T09:25:27.582Z,13.90
2022-11-07T09:26:27.561Z,17.90
2022-11-07T09:27:27.544Z,18.00
2022-11-07T09:28:27.523Z,19.90
2022-11-07T09:29:27.517Z,16.40
2022-11-07T09:30:27.541Z,19.60
2022-11-07T09:31:27.478Z,21.50
2022-11-07T09:32:43.885Z,25.60
2022-11-07T09:33:28.448Z,23.70
2022-11-07T09:34:27.444Z,30.50
2022-11-07T09:35:27.453Z,15.70
2022-11-07T09:36:27.473Z,14.50
2022-11-07T09:37:27.399Z,14.20
2022-11-07T09:38:27.399Z,14.70
2022-11-07T09:39:27.409Z,16.10
2022-11-07T09:40:27.455Z,13.60
2022-11-07T09:41:27.368Z,12.80
2022-11-07T09:42:27.369Z,13.50
2022-11-07T09:43:27.354Z,13.00
2022-11-07T09:44:31.590Z,10.70
2022-11-07T09:45:28.359Z,12.50
2022-11-07T09:46:27.332Z,13.20
2022-11-07T09:47:27.307Z,33.00
2022-11-07T09:48:27.299Z,23.60
2022-11-07T09:49:27.281Z,24.30
2022-11-07T09:50:27.305Z,21.20
2022-11-07T09:51:27.258Z,16.50
2022-11-07T09:52:27.259Z,11.90
2022-11-07T09:53:27.238Z,13.50
2022-11-07T09:54:27.218Z,14.00
2022-11-07T09:55:27.228Z,14.40
2022-11-07T09:56:27.208Z,16.60
2022-11-07T09:57:27.195Z,17.90
2022-11-07T09:58:27.176Z,39.90
2022-11-07T09:59:27.202Z,17.80
2022-11-07T10:00:27.216Z,12.40
2022-11-07T10:01:27.197Z,12.10
2022-11-07T10:02:27.229Z,12.30
2022-11-07T10:03:27.126Z,13.10
2022-11-07T10:04:27.512Z,12.80
2022-11-07T10:05:27.107Z,11.40
2022-11-07T10:06:27.114Z,13.30
2022-11-07T10:07:27.081Z,13.50
2022-11-07T10:08:27.068Z,27.10
2022-11-07T10:09:27.077Z,14.50
2022-11-07T10:10:27.035Z,14.20
2022-11-07T10:11:27.044Z,20.00
2022-11-07T10:12:27.001Z,13.50
2022-11-07T10:13:26.991Z,17.10
2022-11-07T10:14:26.989Z,13.70
2022-11-07T10:15:26.997Z,14.20
2022-11-07T10:16:27.012Z,12.20
2022-11-07T10:17:26.951Z,13.40
2022-11-07T10:18:26.983Z,12.50
2022-11-07T10:19:26.941Z,12.10
2022-11-07T10:20:26.941Z,12.80
2022-11-07T10:21:42.270Z,13.20
2022-11-07T10:22:27.904Z,12.30
2022-11-07T10:23:26.901Z,11.10
2022-11-07T10:24:26.882Z,11.30
2022-11-07T10:25:26.879Z,12.50
2022-11-07T10:26:26.896Z,10.10
2022-11-07T10:27:26.868Z,10.20
2022-11-07T10:28:26.852Z,11.90
2022-11-07T10:29:26.827Z,12.80
2022-11-07T10:30:26.818Z,14.40
2022-11-07T10:31:26.842Z,18.80
2022-11-07T10:32:26.803Z,19.40
2022-11-07T10:33:26.779Z,21.30
2022-11-07T10:34:26.774Z,19.50
2022-11-07T10:35:26.776Z,16.90
2022-11-07T10:36:26.756Z,18.20
2022-11-07T10:37:26.754Z,17.60
2022-11-07T10:38:26.726Z,16.00
2022-11-07T10:39:26.721Z,15.40
2022-11-07T10:40:26.700Z,15.10
2022-11-07T10:41:26.730Z,13.80
2022-11-07T10:42:26.690Z,13.60
2022-11-07T10:43:26.695Z,13.90
2022-11-07T10:44:26.671Z,12.80
2022-11-07T10:45:26.646Z,11.60
2022-11-07T10:46:26.659Z,10.20
2022-11-07T10:47:26.611Z,9.30
2022-11-07T10:48:26.592Z,9.80
2022-11-07T10:49:26.587Z,9.30
2022-11-07T10:50:26.575Z,8.90
2022-11-07T10:51:26.614Z,9.70
2022-11-07T10:52:26.576Z,9.00
2022-11-07T10:53:26.562Z,9.30
2022-11-07T10:54:26.534Z,9.20
2022-11-07T10:55:26.553Z,9.20
2022-11-07T10:56:26.566Z,9.40
2022-11-07T10:57:26.526Z,9.20
2022-11-07T10:58:26.492Z,9.30
2022-11-07T10:59:30.095Z,9.80
2022-11-07T11:00:27.539Z,10.20
2022-11-07T11:01:26.674Z,9.40
2022-11-07T11:02:26.505Z,9.50
2022-11-07T11:03:41.904Z,10.10
2022-11-07T11:04:27.433Z,10.20
2022-11-07T11:05:26.429Z,7.60
2022-11-07T11:06:26.430Z,6.20
2022-11-07T11:07:28.617Z,6.20
2022-11-07T11:08:26.387Z,7.00
2022-11-07T11:09:26.390Z,6.60
2022-11-07T11:10:26.358Z,6.40
2022-11-07T11:11:26.386Z,6.30
2022-11-07T11:12:26.332Z,6.50
2022-11-07T11:13:26.336Z,6.70
2022-11-07T11:14:26.315Z,6.40
2022-11-07T11:15:29.972Z,6.50
2022-11-07T11:16:27.313Z,6.40
2022-11-07T11:17:26.312Z,6.70
2022-11-07T11:18:26.279Z,6.50
2022-11-07T11:19:26.258Z,7.60
2022-11-07T11:20:26.273Z,8.70
2022-11-07T11:21:26.243Z,8.40
2022-11-07T11:22:26.257Z,8.00
2022-11-07T11:23:26.213Z,6.70
2022-11-07T11:24:26.193Z,6.80
2022-11-07T11:25:26.218Z,7.20
2022-11-07T11:26:26.172Z,7.30
2022-11-07T11:27:26.145Z,7.90
2022-11-07T11:28:26.151Z,7.90
2022-11-07T11:29:26.154Z,7.60
2022-11-07T11:30:26.202Z,7.00
2022-11-07T11:31:26.113Z,7.10
2022-11-07T11:32:26.127Z,7.00
2022-11-07T11:33:26.106Z,6.50
2022-11-07T11:34:26.084Z,7.20
2022-11-07T11:35:26.133Z,6.40
2022-11-07T11:36:26.069Z,6.60
2022-11-07T11:37:26.081Z,6.70
2022-11-07T11:38:26.023Z,6.80
2022-11-07T11:39:26.053Z,7.00
2022-11-07T11:40:26.039Z,7.00
2022-11-07T11:41:26.018Z,7.10
2022-11-07T11:42:25.994Z,7.40
2022-11-07T11:43:26.003Z,7.00
2022-11-07T11:44:25.966Z,8.00
2022-11-07T11:45:26.010Z,9.00
2022-11-07T11:46:25.972Z,8.90
2022-11-07T11:47:29.198Z,9.50
2022-11-07T11:48:26.941Z,6.90
2022-11-07T11:49:25.918Z,8.10
2022-11-07T11:50:25.921Z,8.60
2022-11-07T11:51:25.942Z,8.80
2022-11-07T11:52:25.908Z,7.90
2022-11-07T11:53:25.884Z,8.40
2022-11-07T11:54:25.870Z,9.10
2022-11-07T11:55:25.872Z,9.40
2022-11-07T11:56:25.886Z,7.50
2022-11-07T11:57:25.847Z,7.00
2022-11-07T11:58:25.825Z,7.60
2022-11-07T11:59:25.820Z,7.10
2022-11-07T12:00:25.803Z,6.90
2022-11-07T12:02:26.827Z,7.50
2022-11-07T12:03:25.749Z,7.10
2022-11-07T12:04:25.734Z,7.30
2022-11-07T12:05:25.728Z,7.00
2022-11-07T12:06:25.775Z,6.70
2022-11-07T12:07:25.741Z,8.10
2022-11-07T12:08:25.739Z,6.40
2022-11-07T12:09:25.705Z,6.80
2022-11-07T12:10:25.684Z,7.60
2022-11-07T12:11:25.690Z,8.70
2022-11-07T12:12:25.650Z,8.70
2022-11-07T12:13:25.653Z,7.20
2022-11-07T12:14:25.629Z,6.70
2022-11-07T12:15:25.651Z,6.50
2022-11-07T12:16:25.641Z,6.50
2022-11-07T12:17:25.609Z,6.70
2022-11-07T12:18:25.590Z,6.40
2022-11-07T12:19:25.585Z,7.00
2022-11-07T12:20:25.578Z,7.40
2022-11-07T12:21:25.560Z,7.60
2022-11-07T12:22:25.562Z,7.10
2022-11-07T12:23:25.552Z,7.60
2022-11-07T12:24:25.514Z,6.20
2022-11-07T12:25:25.512Z,6.30
2022-11-07T12:26:25.508Z,7.60
2022-11-07T12:27:27.198Z,6.90
2022-11-07T12:28:25.480Z,6.40
2022-11-07T12:29:25.494Z,6.70
2022-11-07T12:30:25.470Z,7.00
2022-11-07T12:31:25.453Z,8.30
2022-11-07T12:32:25.471Z,7.10
2022-11-07T12:33:25.422Z,6.60
2022-11-07T12:34:25.407Z,6.40
2022-11-07T12:35:25.412Z,6.70
2022-11-07T12:36:25.399Z,8.20
2022-11-07T12:37:25.474Z,7.30
2022-11-07T12:38:25.370Z,8.10
2022-11-07T12:39:25.352Z,9.10
2022-11-07T12:40:25.334Z,9.30
2022-11-07T12:41:25.324Z,10.00
2022-11-07T12:42:25.335Z,9.40
2022-11-07T12:43:25.323Z,9.50
2022-11-07T12:44:25.305Z,10.00
2022-11-07T12:45:25.309Z,11.00